sensor_id;sensor_type;location;lat;lon;timestamp;P1;durP1;ratioP1;P2;durP2;ratioP2
78430;SDS011;67727;50.236;22.452;2024-01-06T00:00:16;40.60;;;20.40;;
78430;SDS011;67727;50.236;22.452;2024-01-06T00:03:03;32.00;;;19.00;;
78430;SDS011;67727;50.236;22.452;2024-01-06T00:05:30;29.20;;;16.40;;
78430;SDS011;67727;50.236;22.452;2024-01-06T00:07:57;30.20;;;16.90;;
78430;SDS011;67727;50.236;22.452;2024-01-06T00:10:24;40.10;;;21.90;;
78430;SDS011;67727;50.236;22.452;2024-01-06T00:12:51;27.50;;;15.10;;
78430;SDS011;67727;50.236;22.452;2024-01-06T00:15:17;32.50;;;16.40;;
78430;SDS011;67727;50.236;22.452;2024-01-06T00:17:44;34.80;;;16.90;;
78430;SDS011;67727;50.236;22.452;2024-01-06T00:20:11;28.90;;;14.40;;
78430;SDS011;67727;50.236;22.452;2024-01-06T00:22:38;25.90;;;13.20;;
78430;SDS011;67727;50.236;22.452;2024-01-06T00:25:05;25.40;;;15.10;;
78430;SDS011;67727;50.236;22.452;2024-01-06T00:27:33;26.40;;;13.00;;
78430;SDS011;67727;50.236;22.452;2024-01-06T00:30:00;21.60;;;11.70;;
78430;SDS011;67727;50.236;22.452;2024-01-06T00:32:27;23.10;;;12.40;;
78430;SDS011;67727;50.236;22.452;2024-01-06T00:34:54;22.70;;;11.30;;
78430;SDS011;67727;50.236;22.452;2024-01-06T00:37:21;20.50;;;12.70;;
78430;SDS011;67727;50.236;22.452;2024-01-06T00:39:48;23.50;;;12.60;;
78430;SDS011;67727;50.236;22.452;2024-01-06T00:42:15;23.10;;;12.20;;
78430;SDS011;67727;50.236;22.452;2024-01-06T00:44:42;28.80;;;14.00;;
78430;SDS011;67727;50.236;22.452;2024-01-06T00:47:09;22.40;;;12.60;;
78430;SDS011;67727;50.236;22.452;2024-01-06T00:49:35;22.70;;;12.10;;
78430;SDS011;67727;50.236;22.452;2024-01-06T00:52:03;22.10;;;12.30;;
78430;SDS011;67727;50.236;22.452;2024-01-06T00:54:30;21.90;;;12.10;;
78430;SDS011;67727;50.236;22.452;2024-01-06T00:56:57;21.40;;;11.10;;
78430;SDS011;67727;50.236;22.452;2024-01-06T00:59:23;28.00;;;12.30;;
78430;SDS011;67727;50.236;22.452;2024-01-06T01:01:50;21.70;;;12.80;;
78430;SDS011;67727;50.236;22.452;2024-01-06T01:04:17;25.90;;;11.30;;
78430;SDS011;67727;50.236;22.452;2024-01-06T01:06:44;20.20;;;11.60;;
78430;SDS011;67727;50.236;22.452;2024-01-06T01:09:11;22.10;;;11.80;;
78430;SDS011;67727;50.236;22.452;2024-01-06T01:11:40;16.80;;;10.30;;
78430;SDS011;67727;50.236;22.452;2024-01-06T01:14:08;18.80;;;10.80;;
78430;SDS011;67727;50.236;22.452;2024-01-06T01:16:34;21.30;;;11.60;;
78430;SDS011;67727;50.236;22.452;2024-01-06T01:19:01;19.90;;;10.90;;
78430;SDS011;67727;50.236;22.452;2024-01-06T01:21:28;18.50;;;9.80;;
78430;SDS011;67727;50.236;22.452;2024-01-06T01:23:55;19.30;;;12.10;;
78430;SDS011;67727;50.236;22.452;2024-01-06T01:26:22;21.50;;;11.40;;
78430;SDS011;67727;50.236;22.452;2024-01-06T01:28:49;22.90;;;11.40;;
78430;SDS011;67727;50.236;22.452;2024-01-06T01:31:16;21.80;;;11.70;;
78430;SDS011;67727;50.236;22.452;2024-01-06T01:33:42;23.60;;;12.00;;
78430;SDS011;67727;50.236;22.452;2024-01-06T01:36:09;20.00;;;11.00;;
78430;SDS011;67727;50.236;22.452;2024-01-06T01:38:36;23.70;;;11.00;;
78430;SDS011;67727;50.236;22.452;2024-01-06T01:41:03;23.40;;;11.80;;
78430;SDS011;67727;50.236;22.452;2024-01-06T01:43:30;21.60;;;11.30;;
78430;SDS011;67727;50.236;22.452;2024-01-06T01:45:57;20.70;;;11.20;;
78430;SDS011;67727;50.236;22.452;2024-01-06T01:48:24;21.10;;;12.30;;
78430;SDS011;67727;50.236;22.452;2024-01-06T01:50:52;22.50;;;12.90;;
78430;SDS011;67727;50.236;22.452;2024-01-06T01:53:20;22.30;;;11.50;;
78430;SDS011;67727;50.236;22.452;2024-01-06T01:55:48;22.00;;;11.70;;
78430;SDS011;67727;50.236;22.452;2024-01-06T01:58:16;25.30;;;12.00;;
78430;SDS011;67727;50.236;22.452;2024-01-06T02:00:43;24.90;;;12.10;;
78430;SDS011;67727;50.236;22.452;2024-01-06T02:03:10;23.00;;;11.50;;
78430;SDS011;67727;50.236;22.452;2024-01-06T02:05:39;27.70;;;12.80;;
78430;SDS011;67727;50.236;22.452;2024-01-06T02:08:06;23.40;;;11.90;;
78430;SDS011;67727;50.236;22.452;2024-01-06T02:10:33;20.70;;;11.00;;
78430;SDS011;67727;50.236;22.452;2024-01-06T02:13:10;24.00;;;11.90;;
78430;SDS011;67727;50.236;22.452;2024-01-06T02:15:38;22.50;;;10.60;;
78430;SDS011;67727;50.236;22.452;2024-01-06T02:18:05;18.00;;;10.20;;
78430;SDS011;67727;50.236;22.452;2024-01-06T02:20:32;19.50;;;11.20;;
78430;SDS011;67727;50.236;22.452;2024-01-06T02:23:00;25.00;;;12.80;;
78430;SDS011;67727;50.236;22.452;2024-01-06T02:25:27;21.70;;;11.60;;
78430;SDS011;67727;50.236;22.452;2024-01-06T02:27:54;20.10;;;11.60;;
78430;SDS011;67727;50.236;22.452;2024-01-06T02:30:21;24.90;;;12.90;;
78430;SDS011;67727;50.236;22.452;2024-01-06T02:32:50;21.50;;;12.10;;
78430;SDS011;67727;50.236;22.452;2024-01-06T02:35:17;22.70;;;11.40;;
78430;SDS011;67727;50.236;22.452;2024-01-06T02:37:44;25.50;;;12.30;;
78430;SDS011;67727;50.236;22.452;2024-01-06T02:40:11;23.70;;;11.70;;
78430;SDS011;67727;50.236;22.452;2024-01-06T02:42:38;24.80;;;11.70;;
78430;SDS011;67727;50.236;22.452;2024-01-06T02:45:06;20.00;;;11.00;;
78430;SDS011;67727;50.236;22.452;2024-01-06T02:47:34;22.10;;;10.80;;
78430;SDS011;67727;50.236;22.452;2024-01-06T02:50:01;22.20;;;11.60;;
78430;SDS011;67727;50.236;22.452;2024-01-06T02:52:28;21.20;;;11.50;;
78430;SDS011;67727;50.236;22.452;2024-01-06T02:54:55;23.40;;;14.20;;
78430;SDS011;67727;50.236;22.452;2024-01-06T02:57:22;24.80;;;14.00;;
78430;SDS011;67727;50.236;22.452;2024-01-06T02:59:48;21.00;;;13.10;;
78430;SDS011;67727;50.236;22.452;2024-01-06T03:02:16;24.00;;;12.90;;
78430;SDS011;67727;50.236;22.452;2024-01-06T03:04:43;22.10;;;11.80;;
78430;SDS011;67727;50.236;22.452;2024-01-06T03:07:10;22.80;;;12.00;;
78430;SDS011;67727;50.236;22.452;2024-01-06T03:09:37;29.40;;;15.90;;
78430;SDS011;67727;50.236;22.452;2024-01-06T03:12:06;32.80;;;14.80;;
78430;SDS011;67727;50.236;22.452;2024-01-06T03:14:34;42.60;;;18.00;;
78430;SDS011;67727;50.236;22.452;2024-01-06T03:17:01;45.60;;;17.10;;
78430;SDS011;67727;50.236;22.452;2024-01-06T03:19:29;52.10;;;21.20;;
78430;SDS011;67727;50.236;22.452;2024-01-06T03:21:57;46.80;;;22.50;;
78430;SDS011;67727;50.236;22.452;2024-01-06T03:24:24;43.50;;;20.80;;
78430;SDS011;67727;50.236;22.452;2024-01-06T03:26:52;39.90;;;17.80;;
78430;SDS011;67727;50.236;22.452;2024-01-06T03:29:19;47.10;;;20.50;;
78430;SDS011;67727;50.236;22.452;2024-01-06T03:31:45;40.60;;;19.40;;
78430;SDS011;67727;50.236;22.452;2024-01-06T03:34:13;31.20;;;17.10;;
78430;SDS011;67727;50.236;22.452;2024-01-06T03:36:40;23.60;;;13.30;;
78430;SDS011;67727;50.236;22.452;2024-01-06T03:39:07;22.00;;;10.10;;
78430;SDS011;67727;50.236;22.452;2024-01-06T03:41:34;28.50;;;13.40;;
78430;SDS011;67727;50.236;22.452;2024-01-06T03:44:01;25.70;;;12.80;;
78430;SDS011;67727;50.236;22.452;2024-01-06T03:46:28;22.60;;;12.20;;
78430;SDS011;67727;50.236;22.452;2024-01-06T03:48:55;25.20;;;12.30;;
78430;SDS011;67727;50.236;22.452;2024-01-06T03:51:22;28.10;;;13.80;;
78430;SDS011;67727;50.236;22.452;2024-01-06T03:53:48;33.30;;;15.30;;
78430;SDS011;67727;50.236;22.452;2024-01-06T03:56:15;32.80;;;15.10;;
78430;SDS011;67727;50.236;22.452;2024-01-06T03:58:42;22.00;;;11.80;;
78430;SDS011;67727;50.236;22.452;2024-01-06T04:01:09;22.60;;;11.30;;
78430;SDS011;67727;50.236;22.452;2024-01-06T04:03:36;28.60;;;13.50;;
78430;SDS011;67727;50.236;22.452;2024-01-06T04:06:05;27.60;;;14.90;;
78430;SDS011;67727;50.236;22.452;2024-01-06T04:08:32;23.50;;;12.00;;
78430;SDS011;67727;50.236;22.452;2024-01-06T04:10:59;24.90;;;13.60;;
78430;SDS011;67727;50.236;22.452;2024-01-06T04:13:26;23.90;;;12.00;;
78430;SDS011;67727;50.236;22.452;2024-01-06T04:15:53;27.00;;;13.20;;
78430;SDS011;67727;50.236;22.452;2024-01-06T04:18:20;26.10;;;14.50;;
78430;SDS011;67727;50.236;22.452;2024-01-06T04:20:47;29.50;;;15.20;;
78430;SDS011;67727;50.236;22.452;2024-01-06T04:23:14;22.60;;;12.10;;
78430;SDS011;67727;50.236;22.452;2024-01-06T04:25:41;23.40;;;12.20;;
78430;SDS011;67727;50.236;22.452;2024-01-06T04:28:08;24.70;;;12.30;;
78430;SDS011;67727;50.236;22.452;2024-01-06T04:30:34;20.70;;;10.80;;
78430;SDS011;67727;50.236;22.452;2024-01-06T04:33:01;20.00;;;11.30;;
78430;SDS011;67727;50.236;22.452;2024-01-06T04:35:29;28.10;;;13.50;;
78430;SDS011;67727;50.236;22.452;2024-01-06T04:37:56;23.70;;;12.90;;
78430;SDS011;67727;50.236;22.452;2024-01-06T04:40:23;20.50;;;11.60;;
78430;SDS011;67727;50.236;22.452;2024-01-06T04:42:50;30.80;;;17.70;;
78430;SDS011;67727;50.236;22.452;2024-01-06T04:45:17;26.50;;;14.30;;
78430;SDS011;67727;50.236;22.452;2024-01-06T04:47:46;23.80;;;13.80;;
78430;SDS011;67727;50.236;22.452;2024-01-06T04:50:12;22.60;;;13.90;;
78430;SDS011;67727;50.236;22.452;2024-01-06T04:52:39;46.80;;;26.90;;
78430;SDS011;67727;50.236;22.452;2024-01-06T04:55:06;104.90;;;48.50;;
78430;SDS011;67727;50.236;22.452;2024-01-06T04:57:33;86.70;;;39.10;;
78430;SDS011;67727;50.236;22.452;2024-01-06T05:00:00;30.30;;;14.80;;
78430;SDS011;67727;50.236;22.452;2024-01-06T05:02:28;141.90;;;50.40;;
78430;SDS011;67727;50.236;22.452;2024-01-06T05:04:55;69.30;;;28.30;;
78430;SDS011;67727;50.236;22.452;2024-01-06T05:07:22;69.00;;;27.70;;
78430;SDS011;67727;50.236;22.452;2024-01-06T05:09:48;30.20;;;16.10;;
78430;SDS011;67727;50.236;22.452;2024-01-06T05:12:15;24.30;;;12.60;;
78430;SDS011;67727;50.236;22.452;2024-01-06T05:14:42;26.40;;;13.30;;
78430;SDS011;67727;50.236;22.452;2024-01-06T05:17:09;24.60;;;13.30;;
78430;SDS011;67727;50.236;22.452;2024-01-06T05:19:36;28.90;;;14.20;;
78430;SDS011;67727;50.236;22.452;2024-01-06T05:22:03;32.10;;;13.80;;
78430;SDS011;67727;50.236;22.452;2024-01-06T05:24:30;33.70;;;16.70;;
78430;SDS011;67727;50.236;22.452;2024-01-06T05:26:57;32.70;;;16.00;;
78430;SDS011;67727;50.236;22.452;2024-01-06T05:29:24;33.40;;;14.50;;
78430;SDS011;67727;50.236;22.452;2024-01-06T05:31:52;28.40;;;14.00;;
78430;SDS011;67727;50.236;22.452;2024-01-06T05:34:19;29.90;;;13.70;;
78430;SDS011;67727;50.236;22.452;2024-01-06T05:36:46;32.40;;;14.10;;
78430;SDS011;67727;50.236;22.452;2024-01-06T05:39:13;33.20;;;14.90;;
78430;SDS011;67727;50.236;22.452;2024-01-06T05:41:40;36.00;;;15.00;;
78430;SDS011;67727;50.236;22.452;2024-01-06T05:44:07;33.00;;;17.00;;
78430;SDS011;67727;50.236;22.452;2024-01-06T05:46:34;25.30;;;15.60;;
78430;SDS011;67727;50.236;22.452;2024-01-06T05:49:01;20.40;;;13.20;;
78430;SDS011;67727;50.236;22.452;2024-01-06T05:51:28;23.30;;;15.10;;
78430;SDS011;67727;50.236;22.452;2024-01-06T05:53:55;21.60;;;13.30;;
78430;SDS011;67727;50.236;22.452;2024-01-06T05:56:25;20.50;;;13.10;;
78430;SDS011;67727;50.236;22.452;2024-01-06T05:58:53;23.40;;;11.30;;
78430;SDS011;67727;50.236;22.452;2024-01-06T06:01:20;23.00;;;11.10;;
78430;SDS011;67727;50.236;22.452;2024-01-06T06:03:47;21.00;;;10.20;;
78430;SDS011;67727;50.236;22.452;2024-01-06T06:06:16;19.90;;;10.50;;
78430;SDS011;67727;50.236;22.452;2024-01-06T06:08:43;21.00;;;11.60;;
78430;SDS011;67727;50.236;22.452;2024-01-06T06:11:11;24.00;;;12.60;;
78430;SDS011;67727;50.236;22.452;2024-01-06T06:13:38;23.30;;;12.40;;
78430;SDS011;67727;50.236;22.452;2024-01-06T06:16:11;37.30;;;17.20;;
78430;SDS011;67727;50.236;22.452;2024-01-06T06:18:39;27.40;;;13.80;;
78430;SDS011;67727;50.236;22.452;2024-01-06T06:21:06;28.30;;;13.80;;
78430;SDS011;67727;50.236;22.452;2024-01-06T06:23:37;22.70;;;11.30;;
78430;SDS011;67727;50.236;22.452;2024-01-06T06:26:05;21.10;;;13.90;;
78430;SDS011;67727;50.236;22.452;2024-01-06T06:28:33;21.60;;;11.30;;
78430;SDS011;67727;50.236;22.452;2024-01-06T06:31:01;21.90;;;11.50;;
78430;SDS011;67727;50.236;22.452;2024-01-06T06:33:28;20.60;;;12.00;;
78430;SDS011;67727;50.236;22.452;2024-01-06T06:35:56;21.40;;;10.80;;
78430;SDS011;67727;50.236;22.452;2024-01-06T06:38:23;17.00;;;10.20;;
78430;SDS011;67727;50.236;22.452;2024-01-06T06:40:52;20.70;;;10.80;;
78430;SDS011;67727;50.236;22.452;2024-01-06T06:43:19;18.60;;;10.20;;
78430;SDS011;67727;50.236;22.452;2024-01-06T06:45:46;20.00;;;11.10;;
78430;SDS011;67727;50.236;22.452;2024-01-06T06:48:13;21.10;;;12.60;;
78430;SDS011;67727;50.236;22.452;2024-01-06T06:50:39;37.20;;;21.30;;
78430;SDS011;67727;50.236;22.452;2024-01-06T06:53:07;43.20;;;23.70;;
78430;SDS011;67727;50.236;22.452;2024-01-06T06:55:35;42.60;;;21.90;;
78430;SDS011;67727;50.236;22.452;2024-01-06T06:58:04;34.70;;;18.60;;
78430;SDS011;67727;50.236;22.452;2024-01-06T07:00:32;29.30;;;15.40;;
78430;SDS011;67727;50.236;22.452;2024-01-06T07:02:59;28.50;;;16.90;;
78430;SDS011;67727;50.236;22.452;2024-01-06T07:05:26;26.70;;;16.80;;
78430;SDS011;67727;50.236;22.452;2024-01-06T07:07:53;31.90;;;18.10;;
78430;SDS011;67727;50.236;22.452;2024-01-06T07:10:20;41.40;;;20.90;;
78430;SDS011;67727;50.236;22.452;2024-01-06T07:12:47;33.90;;;18.40;;
78430;SDS011;67727;50.236;22.452;2024-01-06T07:15:14;43.30;;;23.60;;
78430;SDS011;67727;50.236;22.452;2024-01-06T07:17:41;44.40;;;24.30;;
78430;SDS011;67727;50.236;22.452;2024-01-06T07:20:08;46.60;;;24.50;;
78430;SDS011;67727;50.236;22.452;2024-01-06T07:22:35;44.00;;;23.70;;
78430;SDS011;67727;50.236;22.452;2024-01-06T07:25:02;57.20;;;27.40;;
78430;SDS011;67727;50.236;22.452;2024-01-06T07:27:30;69.10;;;37.20;;
78430;SDS011;67727;50.236;22.452;2024-01-06T07:29:56;84.30;;;37.80;;
78430;SDS011;67727;50.236;22.452;2024-01-06T07:32:23;76.80;;;31.40;;
78430;SDS011;67727;50.236;22.452;2024-01-06T07:34:51;68.10;;;31.80;;
78430;SDS011;67727;50.236;22.452;2024-01-06T07:37:18;63.20;;;28.50;;
78430;SDS011;67727;50.236;22.452;2024-01-06T07:39:45;58.40;;;25.50;;
78430;SDS011;67727;50.236;22.452;2024-01-06T07:42:12;39.20;;;19.00;;
78430;SDS011;67727;50.236;22.452;2024-01-06T07:44:39;51.00;;;23.90;;
78430;SDS011;67727;50.236;22.452;2024-01-06T07:47:06;51.70;;;28.40;;
78430;SDS011;67727;50.236;22.452;2024-01-06T07:49:33;48.80;;;27.30;;
78430;SDS011;67727;50.236;22.452;2024-01-06T07:52:00;52.80;;;27.00;;
78430;SDS011;67727;50.236;22.452;2024-01-06T07:54:26;53.00;;;27.00;;
78430;SDS011;67727;50.236;22.452;2024-01-06T07:56:53;57.10;;;28.80;;
78430;SDS011;67727;50.236;22.452;2024-01-06T08:01:48;51.90;;;25.50;;
78430;SDS011;67727;50.236;22.452;2024-01-06T08:04:15;44.40;;;22.60;;
78430;SDS011;67727;50.236;22.452;2024-01-06T08:06:42;43.10;;;21.90;;
78430;SDS011;67727;50.236;22.452;2024-01-06T08:09:09;41.70;;;18.70;;
78430;SDS011;67727;50.236;22.452;2024-01-06T08:11:36;55.00;;;25.90;;
78430;SDS011;67727;50.236;22.452;2024-01-06T08:14:02;38.20;;;20.60;;
78430;SDS011;67727;50.236;22.452;2024-01-06T08:16:29;25.20;;;14.50;;
78430;SDS011;67727;50.236;22.452;2024-01-06T08:18:56;29.80;;;13.40;;
78430;SDS011;67727;50.236;22.452;2024-01-06T08:21:24;23.90;;;12.60;;
78430;SDS011;67727;50.236;22.452;2024-01-06T08:23:52;22.50;;;12.30;;
78430;SDS011;67727;50.236;22.452;2024-01-06T08:26:19;28.10;;;13.70;;
78430;SDS011;67727;50.236;22.452;2024-01-06T08:28:46;23.30;;;14.70;;
78430;SDS011;67727;50.236;22.452;2024-01-06T08:31:13;33.00;;;14.60;;
78430;SDS011;67727;50.236;22.452;2024-01-06T08:33:40;33.20;;;16.30;;
78430;SDS011;67727;50.236;22.452;2024-01-06T08:36:06;36.20;;;16.30;;
78430;SDS011;67727;50.236;22.452;2024-01-06T08:38:34;37.50;;;19.50;;
78430;SDS011;67727;50.236;22.452;2024-01-06T08:41:01;38.50;;;20.70;;
78430;SDS011;67727;50.236;22.452;2024-01-06T08:43:28;58.20;;;29.40;;
78430;SDS011;67727;50.236;22.452;2024-01-06T08:45:55;51.90;;;28.00;;
78430;SDS011;67727;50.236;22.452;2024-01-06T08:48:22;71.50;;;37.20;;
78430;SDS011;67727;50.236;22.452;2024-01-06T08:50:49;81.90;;;42.90;;
78430;SDS011;67727;50.236;22.452;2024-01-06T08:53:16;79.10;;;40.30;;
78430;SDS011;67727;50.236;22.452;2024-01-06T08:55:43;85.40;;;45.30;;
78430;SDS011;67727;50.236;22.452;2024-01-06T08:58:10;83.80;;;44.20;;
78430;SDS011;67727;50.236;22.452;2024-01-06T09:00:37;62.20;;;30.50;;
78430;SDS011;67727;50.236;22.452;2024-01-06T09:03:04;109.50;;;54.70;;
78430;SDS011;67727;50.236;22.452;2024-01-06T09:05:31;56.20;;;33.50;;
78430;SDS011;67727;50.236;22.452;2024-01-06T09:07:58;42.30;;;25.80;;
78430;SDS011;67727;50.236;22.452;2024-01-06T09:10:25;46.80;;;28.50;;
78430;SDS011;67727;50.236;22.452;2024-01-06T09:12:52;46.30;;;26.90;;
78430;SDS011;67727;50.236;22.452;2024-01-06T09:15:19;35.90;;;19.60;;
78430;SDS011;67727;50.236;22.452;2024-01-06T09:17:45;32.20;;;17.70;;
78430;SDS011;67727;50.236;22.452;2024-01-06T09:20:12;50.70;;;28.70;;
78430;SDS011;67727;50.236;22.452;2024-01-06T09:22:39;34.60;;;22.30;;
78430;SDS011;67727;50.236;22.452;2024-01-06T09:25:07;44.80;;;29.00;;
78430;SDS011;67727;50.236;22.452;2024-01-06T09:27:34;39.60;;;24.10;;
78430;SDS011;67727;50.236;22.452;2024-01-06T09:30:01;45.70;;;22.30;;
78430;SDS011;67727;50.236;22.452;2024-01-06T09:32:28;51.80;;;25.70;;
78430;SDS011;67727;50.236;22.452;2024-01-06T09:34:55;116.70;;;53.30;;
78430;SDS011;67727;50.236;22.452;2024-01-06T09:37:22;56.90;;;28.70;;
78430;SDS011;67727;50.236;22.452;2024-01-06T09:39:49;53.20;;;30.60;;
78430;SDS011;67727;50.236;22.452;2024-01-06T09:42:16;42.10;;;19.50;;
78430;SDS011;67727;50.236;22.452;2024-01-06T09:44:43;51.80;;;25.40;;
78430;SDS011;67727;50.236;22.452;2024-01-06T09:47:11;58.20;;;27.30;;
78430;SDS011;67727;50.236;22.452;2024-01-06T09:52:10;70.50;;;36.90;;
78430;SDS011;67727;50.236;22.452;2024-01-06T09:54:44;57.80;;;28.60;;
78430;SDS011;67727;50.236;22.452;2024-01-06T09:57:17;43.80;;;23.10;;
78430;SDS011;67727;50.236;22.452;2024-01-06T09:59:44;43.90;;;22.20;;
78430;SDS011;67727;50.236;22.452;2024-01-06T10:02:14;50.30;;;28.30;;
78430;SDS011;67727;50.236;22.452;2024-01-06T10:04:43;41.60;;;23.50;;
78430;SDS011;67727;50.236;22.452;2024-01-06T10:07:11;29.70;;;16.40;;
78430;SDS011;67727;50.236;22.452;2024-01-06T10:09:40;22.90;;;11.60;;
78430;SDS011;67727;50.236;22.452;2024-01-06T10:12:09;29.70;;;13.40;;
78430;SDS011;67727;50.236;22.452;2024-01-06T10:14:37;19.60;;;10.60;;
78430;SDS011;67727;50.236;22.452;2024-01-06T10:17:08;21.00;;;11.70;;
78430;SDS011;67727;50.236;22.452;2024-01-06T10:19:35;21.70;;;11.40;;
78430;SDS011;67727;50.236;22.452;2024-01-06T10:22:05;23.70;;;11.10;;
78430;SDS011;67727;50.236;22.452;2024-01-06T10:24:32;23.00;;;13.00;;
78430;SDS011;67727;50.236;22.452;2024-01-06T10:26:59;23.90;;;13.60;;
78430;SDS011;67727;50.236;22.452;2024-01-06T10:29:26;43.20;;;18.40;;
78430;SDS011;67727;50.236;22.452;2024-01-06T10:31:53;33.10;;;20.50;;
78430;SDS011;67727;50.236;22.452;2024-01-06T10:34:21;38.90;;;22.90;;
78430;SDS011;67727;50.236;22.452;2024-01-06T10:36:50;40.00;;;22.80;;
78430;SDS011;67727;50.236;22.452;2024-01-06T10:39:20;52.50;;;30.40;;
78430;SDS011;67727;50.236;22.452;2024-01-06T10:41:48;41.00;;;25.70;;
78430;SDS011;67727;50.236;22.452;2024-01-06T10:46:44;43.40;;;20.20;;
78430;SDS011;67727;50.236;22.452;2024-01-06T10:49:12;49.80;;;24.80;;
78430;SDS011;67727;50.236;22.452;2024-01-06T10:51:39;52.70;;;29.10;;
78430;SDS011;67727;50.236;22.452;2024-01-06T10:54:07;49.80;;;25.40;;
78430;SDS011;67727;50.236;22.452;2024-01-06T10:56:36;41.30;;;21.70;;
78430;SDS011;67727;50.236;22.452;2024-01-06T10:59:05;30.10;;;14.70;;
78430;SDS011;67727;50.236;22.452;2024-01-06T11:01:34;33.80;;;17.30;;
78430;SDS011;67727;50.236;22.452;2024-01-06T11:04:02;25.60;;;15.00;;
78430;SDS011;67727;50.236;22.452;2024-01-06T11:06:33;29.90;;;15.80;;
78430;SDS011;67727;50.236;22.452;2024-01-06T11:09:06;34.40;;;16.00;;
78430;SDS011;67727;50.236;22.452;2024-01-06T11:11:40;29.50;;;15.10;;
78430;SDS011;67727;50.236;22.452;2024-01-06T11:14:17;38.60;;;20.00;;
78430;SDS011;67727;50.236;22.452;2024-01-06T11:16:46;41.20;;;20.80;;
78430;SDS011;67727;50.236;22.452;2024-01-06T11:22:18;36.00;;;18.90;;
78430;SDS011;67727;50.236;22.452;2024-01-06T11:24:52;26.10;;;13.90;;
78430;SDS011;67727;50.236;22.452;2024-01-06T11:27:26;29.60;;;15.00;;
78430;SDS011;67727;50.236;22.452;2024-01-06T11:30:00;33.80;;;16.20;;
78430;SDS011;67727;50.236;22.452;2024-01-06T11:35:08;34.90;;;20.20;;
78430;SDS011;67727;50.236;22.452;2024-01-06T11:40:21;39.30;;;20.10;;
78430;SDS011;67727;50.236;22.452;2024-01-06T11:42:57;38.40;;;20.30;;
78430;SDS011;67727;50.236;22.452;2024-01-06T11:45:25;42.80;;;23.10;;
78430;SDS011;67727;50.236;22.452;2024-01-06T11:47:54;40.20;;;19.30;;
78430;SDS011;67727;50.236;22.452;2024-01-06T11:50:25;34.10;;;19.20;;
78430;SDS011;67727;50.236;22.452;2024-01-06T11:52:53;35.80;;;21.90;;
78430;SDS011;67727;50.236;22.452;2024-01-06T11:55:21;42.20;;;24.10;;
78430;SDS011;67727;50.236;22.452;2024-01-06T11:57:49;47.90;;;29.20;;
78430;SDS011;67727;50.236;22.452;2024-01-06T12:00:16;25.70;;;12.80;;
78430;SDS011;67727;50.236;22.452;2024-01-06T12:05:12;55.40;;;28.40;;
78430;SDS011;67727;50.236;22.452;2024-01-06T12:07:42;63.00;;;28.60;;
78430;SDS011;67727;50.236;22.452;2024-01-06T12:10:09;50.10;;;26.40;;
78430;SDS011;67727;50.236;22.452;2024-01-06T12:12:38;58.10;;;28.30;;
78430;SDS011;67727;50.236;22.452;2024-01-06T12:15:05;61.10;;;28.90;;
78430;SDS011;67727;50.236;22.452;2024-01-06T12:17:35;50.70;;;23.20;;
78430;SDS011;67727;50.236;22.452;2024-01-06T12:20:02;56.60;;;32.10;;
78430;SDS011;67727;50.236;22.452;2024-01-06T12:22:29;54.10;;;31.00;;
78430;SDS011;67727;50.236;22.452;2024-01-06T12:24:58;48.10;;;24.80;;
78430;SDS011;67727;50.236;22.452;2024-01-06T12:27:25;36.60;;;18.30;;
78430;SDS011;67727;50.236;22.452;2024-01-06T12:29:52;44.90;;;19.60;;
78430;SDS011;67727;50.236;22.452;2024-01-06T12:32:19;43.70;;;18.90;;
78430;SDS011;67727;50.236;22.452;2024-01-06T12:34:46;47.50;;;21.00;;
78430;SDS011;67727;50.236;22.452;2024-01-06T12:37:13;44.10;;;19.70;;
78430;SDS011;67727;50.236;22.452;2024-01-06T12:39:40;39.70;;;18.10;;
78430;SDS011;67727;50.236;22.452;2024-01-06T12:42:09;38.30;;;19.20;;
78430;SDS011;67727;50.236;22.452;2024-01-06T12:44:36;35.60;;;18.60;;
78430;SDS011;67727;50.236;22.452;2024-01-06T12:47:04;36.50;;;19.20;;
78430;SDS011;67727;50.236;22.452;2024-01-06T12:49:31;41.50;;;21.90;;
78430;SDS011;67727;50.236;22.452;2024-01-06T12:51:59;50.30;;;25.00;;
78430;SDS011;67727;50.236;22.452;2024-01-06T12:54:26;37.20;;;17.60;;
78430;SDS011;67727;50.236;22.452;2024-01-06T12:56:53;35.10;;;17.50;;
78430;SDS011;67727;50.236;22.452;2024-01-06T12:59:20;36.90;;;16.80;;
78430;SDS011;67727;50.236;22.452;2024-01-06T13:01:47;44.90;;;19.30;;
78430;SDS011;67727;50.236;22.452;2024-01-06T13:04:14;38.40;;;21.70;;
78430;SDS011;67727;50.236;22.452;2024-01-06T13:06:40;42.10;;;18.20;;
78430;SDS011;67727;50.236;22.452;2024-01-06T13:09:08;50.40;;;25.80;;
78430;SDS011;67727;50.236;22.452;2024-01-06T13:11:38;48.50;;;22.70;;
78430;SDS011;67727;50.236;22.452;2024-01-06T13:14:05;44.80;;;21.20;;
78430;SDS011;67727;50.236;22.452;2024-01-06T13:16:32;45.50;;;24.90;;
78430;SDS011;67727;50.236;22.452;2024-01-06T13:18:59;31.20;;;15.20;;
78430;SDS011;67727;50.236;22.452;2024-01-06T13:21:26;37.40;;;18.50;;
78430;SDS011;67727;50.236;22.452;2024-01-06T13:23:55;37.10;;;17.00;;
78430;SDS011;67727;50.236;22.452;2024-01-06T13:26:27;41.70;;;18.30;;
78430;SDS011;67727;50.236;22.452;2024-01-06T13:28:54;43.70;;;22.70;;
78430;SDS011;67727;50.236;22.452;2024-01-06T13:31:21;40.90;;;19.10;;
78430;SDS011;67727;50.236;22.452;2024-01-06T13:33:48;38.60;;;19.70;;
78430;SDS011;67727;50.236;22.452;2024-01-06T13:36:15;38.40;;;16.70;;
78430;SDS011;67727;50.236;22.452;2024-01-06T13:38:44;46.40;;;23.80;;
78430;SDS011;67727;50.236;22.452;2024-01-06T13:41:11;42.30;;;21.30;;
78430;SDS011;67727;50.236;22.452;2024-01-06T13:43:39;40.20;;;20.90;;
78430;SDS011;67727;50.236;22.452;2024-01-06T13:46:06;33.40;;;18.80;;
78430;SDS011;67727;50.236;22.452;2024-01-06T13:48:33;26.90;;;15.20;;
78430;SDS011;67727;50.236;22.452;2024-01-06T13:51:00;30.90;;;15.30;;
78430;SDS011;67727;50.236;22.452;2024-01-06T13:53:27;41.60;;;20.00;;
78430;SDS011;67727;50.236;22.452;2024-01-06T13:55:54;37.10;;;19.30;;
78430;SDS011;67727;50.236;22.452;2024-01-06T13:58:22;48.50;;;24.70;;
78430;SDS011;67727;50.236;22.452;2024-01-06T14:00:48;40.10;;;21.40;;
78430;SDS011;67727;50.236;22.452;2024-01-06T14:03:15;34.50;;;17.40;;
78430;SDS011;67727;50.236;22.452;2024-01-06T14:05:43;47.10;;;23.50;;
78430;SDS011;67727;50.236;22.452;2024-01-06T14:08:09;34.20;;;17.70;;
78430;SDS011;67727;50.236;22.452;2024-01-06T14:10:36;61.80;;;30.50;;
78430;SDS011;67727;50.236;22.452;2024-01-06T14:13:04;31.90;;;13.60;;
78430;SDS011;67727;50.236;22.452;2024-01-06T14:15:31;38.90;;;18.10;;
78430;SDS011;67727;50.236;22.452;2024-01-06T14:17:59;45.10;;;21.50;;
78430;SDS011;67727;50.236;22.452;2024-01-06T14:20:26;60.00;;;29.60;;
78430;SDS011;67727;50.236;22.452;2024-01-06T14:22:54;42.30;;;22.80;;
78430;SDS011;67727;50.236;22.452;2024-01-06T14:25:21;23.90;;;12.00;;
78430;SDS011;67727;50.236;22.452;2024-01-06T14:27:48;54.40;;;24.80;;